sensor_id;sensor_type;location;lat;lon;timestamp;P1;durP1;ratioP1;P2;durP2;ratioP2
27543;SDS011;17996;51.056;3.656;2022-09-09T00:02:54;9.30;;;2.97;;
27543;SDS011;17996;51.056;3.656;2022-09-09T00:05:25;14.02;;;3.75;;
27543;SDS011;17996;51.056;3.656;2022-09-09T00:08:07;10.48;;;3.33;;
27543;SDS011;17996;51.056;3.656;2022-09-09T00:10:44;13.00;;;3.35;;
27543;SDS011;17996;51.056;3.656;2022-09-09T00:13:51;7.38;;;2.80;;
27543;SDS011;17996;51.056;3.656;2022-09-09T00:21:38;15.63;;;3.15;;
27543;SDS011;17996;51.056;3.656;2022-09-09T00:29:28;11.32;;;3.42;;
27543;SDS011;17996;51.056;3.656;2022-09-09T00:32:19;7.97;;;2.88;;
27543;SDS011;17996;51.056;3.656;2022-09-09T00:37:20;10.70;;;3.08;;
27543;SDS011;17996;51.056;3.656;2022-09-09T00:39:50;11.73;;;3.25;;
27543;SDS011;17996;51.056;3.656;2022-09-09T00:44:59;11.25;;;3.70;;
27543;SDS011;17996;51.056;3.656;2022-09-09T00:47:45;11.38;;;3.00;;
27543;SDS011;17996;51.056;3.656;2022-09-09T00:56:08;12.40;;;3.22;;
27543;SDS011;17996;51.056;3.656;2022-09-09T00:58:48;11.60;;;2.67;;
27543;SDS011;17996;51.056;3.656;2022-09-09T01:01:28;13.15;;;3.25;;
27543;SDS011;17996;51.056;3.656;2022-09-09T01:03:55;13.77;;;3.10;;
27543;SDS011;17996;51.056;3.656;2022-09-09T01:06:34;10.93;;;2.50;;
27543;SDS011;17996;51.056;3.656;2022-09-09T01:26:10;8.10;;;2.58;;
27543;SDS011;17996;51.056;3.656;2022-09-09T01:28:11;7.60;;;2.45;;
27543;SDS011;17996;51.056;3.656;2022-09-09T01:30:45;12.07;;;2.58;;
27543;SDS011;17996;51.056;3.656;2022-09-09T01:33:15;15.75;;;2.90;;
27543;SDS011;17996;51.056;3.656;2022-09-09T01:40:51;11.48;;;2.40;;
27543;SDS011;17996;51.056;3.656;2022-09-09T01:43:22;16.17;;;2.90;;
27543;SDS011;17996;51.056;3.656;2022-09-09T01:45:52;17.70;;;3.13;;
27543;SDS011;17996;51.056;3.656;2022-09-09T01:48:23;10.57;;;2.15;;
27543;SDS011;17996;51.056;3.656;2022-09-09T01:50:50;6.28;;;2.40;;
27543;SDS011;17996;51.056;3.656;2022-09-09T01:53:17;10.70;;;2.53;;
27543;SDS011;17996;51.056;3.656;2022-09-09T01:58:58;13.27;;;2.70;;
27543;SDS011;17996;51.056;3.656;2022-09-09T02:06:59;11.45;;;2.92;;
27543;SDS011;17996;51.056;3.656;2022-09-09T02:09:28;8.40;;;2.15;;
27543;SDS011;17996;51.056;3.656;2022-09-09T02:11:59;7.57;;;2.80;;
27543;SDS011;17996;51.056;3.656;2022-09-09T02:14:41;8.93;;;2.03;;
27543;SDS011;17996;51.056;3.656;2022-09-09T02:17:14;8.77;;;2.42;;
27543;SDS011;17996;51.056;3.656;2022-09-09T02:19:47;10.45;;;2.20;;
27543;SDS011;17996;51.056;3.656;2022-09-09T02:22:19;13.82;;;2.80;;
27543;SDS011;17996;51.056;3.656;2022-09-09T02:24:49;10.77;;;2.28;;
27543;SDS011;17996;51.056;3.656;2022-09-09T02:27:22;11.13;;;2.58;;
27543;SDS011;17996;51.056;3.656;2022-09-09T02:32:22;12.10;;;2.47;;
27543;SDS011;17996;51.056;3.656;2022-09-09T02:34:56;6.68;;;2.47;;
27543;SDS011;17996;51.056;3.656;2022-09-09T02:37:32;12.02;;;2.80;;
27543;SDS011;17996;51.056;3.656;2022-09-09T02:40:04;14.90;;;2.80;;
27543;SDS011;17996;51.056;3.656;2022-09-09T02:45:09;11.43;;;2.63;;
27543;SDS011;17996;51.056;3.656;2022-09-09T02:51:08;11.07;;;2.95;;
27543;SDS011;17996;51.056;3.656;2022-09-09T02:53:49;16.65;;;3.13;;
27543;SDS011;17996;51.056;3.656;2022-09-09T02:56:27;11.18;;;2.80;;
27543;SDS011;17996;51.056;3.656;2022-09-09T02:59:03;11.25;;;2.55;;
27543;SDS011;17996;51.056;3.656;2022-09-09T03:01:31;14.23;;;2.97;;
27543;SDS011;17996;51.056;3.656;2022-09-09T03:03:58;13.73;;;2.63;;
27543;SDS011;17996;51.056;3.656;2022-09-09T03:06:24;15.13;;;2.70;;
27543;SDS011;17996;51.056;3.656;2022-09-09T03:08:51;15.90;;;3.47;;
27543;SDS011;17996;51.056;3.656;2022-09-09T03:11:20;14.43;;;2.50;;
27543;SDS011;17996;51.056;3.656;2022-09-09T03:13:47;21.33;;;3.58;;
27543;SDS011;17996;51.056;3.656;2022-09-09T03:16:15;14.07;;;2.72;;
27543;SDS011;17996;51.056;3.656;2022-09-09T03:18:44;17.05;;;3.65;;
27543;SDS011;17996;51.056;3.656;2022-09-09T03:21:14;20.13;;;3.25;;
27543;SDS011;17996;51.056;3.656;2022-09-09T03:23:42;20.50;;;3.25;;
27543;SDS011;17996;51.056;3.656;2022-09-09T03:26:09;15.10;;;3.03;;
27543;SDS011;17996;51.056;3.656;2022-09-09T03:28:37;21.40;;;3.22;;
27543;SDS011;17996;51.056;3.656;2022-09-09T03:31:09;19.05;;;3.15;;
27543;SDS011;17996;51.056;3.656;2022-09-09T03:33:37;24.90;;;3.63;;
27543;SDS011;17996;51.056;3.656;2022-09-09T03:36:05;15.50;;;2.80;;
27543;SDS011;17996;51.056;3.656;2022-09-09T03:41:04;17.25;;;3.13;;
27543;SDS011;17996;51.056;3.656;2022-09-09T03:43:33;13.90;;;2.75;;
27543;SDS011;17996;51.056;3.656;2022-09-09T03:46:01;13.75;;;3.00;;
27543;SDS011;17996;51.056;3.656;2022-09-09T03:48:28;25.42;;;4.00;;
27543;SDS011;17996;51.056;3.656;2022-09-09T03:50:55;16.83;;;3.55;;
27543;SDS011;17996;51.056;3.656;2022-09-09T03:53:28;20.98;;;3.15;;
27543;SDS011;17996;51.056;3.656;2022-09-09T03:55:57;18.02;;;3.50;;
27543;SDS011;17996;51.056;3.656;2022-09-09T03:58:25;14.65;;;3.95;;
27543;SDS011;17996;51.056;3.656;2022-09-09T04:00:55;21.13;;;3.38;;
27543;SDS011;17996;51.056;3.656;2022-09-09T04:03:25;16.52;;;3.75;;
27543;SDS011;17996;51.056;3.656;2022-09-09T04:05:52;14.55;;;3.35;;
27543;SDS011;17996;51.056;3.656;2022-09-09T04:08:20;23.27;;;3.78;;
27543;SDS011;17996;51.056;3.656;2022-09-09T04:10:49;16.52;;;3.53;;
27543;SDS011;17996;51.056;3.656;2022-09-09T04:13:17;16.30;;;3.40;;
27543;SDS011;17996;51.056;3.656;2022-09-09T04:15:43;20.50;;;3.67;;
27543;SDS011;17996;51.056;3.656;2022-09-09T04:18:14;20.77;;;3.80;;
27543;SDS011;17996;51.056;3.656;2022-09-09T04:23:11;22.13;;;4.40;;
27543;SDS011;17996;51.056;3.656;2022-09-09T04:25:43;17.52;;;3.83;;
27543;SDS011;17996;51.056;3.656;2022-09-09T04:28:13;24.27;;;4.45;;
27543;SDS011;17996;51.056;3.656;2022-09-09T04:30:42;17.65;;;3.13;;
27543;SDS011;17996;51.056;3.656;2022-09-09T04:33:09;19.35;;;4.13;;
27543;SDS011;17996;51.056;3.656;2022-09-09T04:35:36;18.23;;;3.88;;
27543;SDS011;17996;51.056;3.656;2022-09-09T04:38:04;24.17;;;4.60;;
27543;SDS011;17996;51.056;3.656;2022-09-09T04:40:35;18.52;;;3.75;;
27543;SDS011;17996;51.056;3.656;2022-09-09T04:43:04;23.65;;;4.13;;
27543;SDS011;17996;51.056;3.656;2022-09-09T04:45:30;25.55;;;5.03;;
27543;SDS011;17996;51.056;3.656;2022-09-09T04:47:59;29.48;;;4.18;;
27543;SDS011;17996;51.056;3.656;2022-09-09T04:52:55;20.08;;;3.97;;
27543;SDS011;17996;51.056;3.656;2022-09-09T04:55:23;23.88;;;4.20;;
27543;SDS011;17996;51.056;3.656;2022-09-09T04:57:49;25.80;;;4.20;;
27543;SDS011;17996;51.056;3.656;2022-09-09T05:00:17;16.10;;;3.00;;
27543;SDS011;17996;51.056;3.656;2022-09-09T05:02:49;24.33;;;4.32;;
27543;SDS011;17996;51.056;3.656;2022-09-09T05:05:18;16.52;;;3.70;;
27543;SDS011;17996;51.056;3.656;2022-09-09T05:07:44;20.13;;;4.10;;
27543;SDS011;17996;51.056;3.656;2022-09-09T05:10:11;21.50;;;3.80;;
27543;SDS011;17996;51.056;3.656;2022-09-09T05:12:38;19.52;;;5.07;;
27543;SDS011;17996;51.056;3.656;2022-09-09T05:15:03;22.77;;;4.53;;
27543;SDS011;17996;51.056;3.656;2022-09-09T05:17:31;14.88;;;3.88;;
27543;SDS011;17996;51.056;3.656;2022-09-09T05:20:00;25.23;;;4.47;;
27543;SDS011;17996;51.056;3.656;2022-09-09T05:22:34;17.75;;;4.03;;
27543;SDS011;17996;51.056;3.656;2022-09-09T05:25:04;21.77;;;4.03;;
27543;SDS011;17996;51.056;3.656;2022-09-09T05:27:36;27.50;;;4.57;;
27543;SDS011;17996;51.056;3.656;2022-09-09T05:35:00;18.77;;;3.85;;
27543;SDS011;17996;51.056;3.656;2022-09-09T05:37:28;24.10;;;4.38;;
27543;SDS011;17996;51.056;3.656;2022-09-09T05:39:55;20.40;;;4.00;;
27543;SDS011;17996;51.056;3.656;2022-09-09T05:42:24;18.13;;;3.72;;
27543;SDS011;17996;51.056;3.656;2022-09-09T05:44:50;20.13;;;4.57;;
27543;SDS011;17996;51.056;3.656;2022-09-09T05:47:22;30.23;;;4.30;;
27543;SDS011;17996;51.056;3.656;2022-09-09T05:49:47;24.20;;;3.55;;
27543;SDS011;17996;51.056;3.656;2022-09-09T05:52:15;24.80;;;3.95;;
27543;SDS011;17996;51.056;3.656;2022-09-09T05:54:44;20.70;;;3.75;;
27543;SDS011;17996;51.056;3.656;2022-09-09T05:57:12;20.98;;;3.95;;
27543;SDS011;17996;51.056;3.656;2022-09-09T05:59:41;13.15;;;3.30;;
27543;SDS011;17996;51.056;3.656;2022-09-09T06:02:10;16.30;;;4.35;;
27543;SDS011;17996;51.056;3.656;2022-09-09T06:04:38;26.13;;;4.72;;
27543;SDS011;17996;51.056;3.656;2022-09-09T06:07:05;27.25;;;4.53;;
27543;SDS011;17996;51.056;3.656;2022-09-09T06:09:31;18.85;;;4.05;;
27543;SDS011;17996;51.056;3.656;2022-09-09T06:14:26;19.67;;;4.07;;
27543;SDS011;17996;51.056;3.656;2022-09-09T06:16:53;24.17;;;4.30;;
27543;SDS011;17996;51.056;3.656;2022-09-09T06:19:18;21.30;;;4.82;;
27543;SDS011;17996;51.056;3.656;2022-09-09T06:21:47;16.95;;;3.75;;
27543;SDS011;17996;51.056;3.656;2022-09-09T06:24:14;24.55;;;3.85;;
27543;SDS011;17996;51.056;3.656;2022-09-09T06:26:42;20.57;;;4.40;;
27543;SDS011;17996;51.056;3.656;2022-09-09T06:31:37;27.30;;;4.88;;
27543;SDS011;17996;51.056;3.656;2022-09-09T06:34:04;33.55;;;4.93;;
27543;SDS011;17996;51.056;3.656;2022-09-09T06:36:37;22.55;;;4.60;;
27543;SDS011;17996;51.056;3.656;2022-09-09T06:41:33;22.65;;;4.30;;
27543;SDS011;17996;51.056;3.656;2022-09-09T06:43:59;19.25;;;4.20;;
27543;SDS011;17996;51.056;3.656;2022-09-09T06:46:27;16.45;;;3.63;;
27543;SDS011;17996;51.056;3.656;2022-09-09T06:48:56;26.67;;;5.28;;
27543;SDS011;17996;51.056;3.656;2022-09-09T06:51:30;23.90;;;4.45;;
27543;SDS011;17996;51.056;3.656;2022-09-09T06:53:59;21.83;;;3.95;;
27543;SDS011;17996;51.056;3.656;2022-09-09T06:56:36;13.52;;;3.22;;
27543;SDS011;17996;51.056;3.656;2022-09-09T06:59:07;19.77;;;3.55;;
27543;SDS011;17996;51.056;3.656;2022-09-09T07:01:34;18.20;;;3.03;;
27543;SDS011;17996;51.056;3.656;2022-09-09T07:04:02;18.92;;;4.05;;
27543;SDS011;17996;51.056;3.656;2022-09-09T07:06:36;21.48;;;3.90;;
27543;SDS011;17996;51.056;3.656;2022-09-09T07:09:07;13.95;;;3.30;;
27543;SDS011;17996;51.056;3.656;2022-09-09T07:11:42;25.67;;;4.53;;
27543;SDS011;17996;51.056;3.656;2022-09-09T07:14:10;14.05;;;3.08;;
27543;SDS011;17996;51.056;3.656;2022-09-09T07:16:39;20.63;;;4.72;;
27543;SDS011;17996;51.056;3.656;2022-09-09T07:19:05;19.17;;;4.35;;
27543;SDS011;17996;51.056;3.656;2022-09-09T07:21:33;19.15;;;3.35;;
27543;SDS011;17996;51.056;3.656;2022-09-09T07:23:59;16.58;;;3.30;;
27543;SDS011;17996;51.056;3.656;2022-09-09T07:26:27;21.75;;;4.05;;
27543;SDS011;17996;51.056;3.656;2022-09-09T07:28:55;19.65;;;3.72;;
27543;SDS011;17996;51.056;3.656;2022-09-09T07:31:24;19.88;;;3.72;;
27543;SDS011;17996;51.056;3.656;2022-09-09T07:34:03;17.83;;;3.67;;
27543;SDS011;17996;51.056;3.656;2022-09-09T07:36:30;16.77;;;3.35;;
27543;SDS011;17996;51.056;3.656;2022-09-09T07:41:36;16.67;;;3.08;;
27543;SDS011;17996;51.056;3.656;2022-09-09T07:44:07;21.02;;;3.72;;
27543;SDS011;17996;51.056;3.656;2022-09-09T07:46:36;19.88;;;3.90;;
27543;SDS011;17996;51.056;3.656;2022-09-09T07:49:03;12.87;;;3.33;;
27543;SDS011;17996;51.056;3.656;2022-09-09T07:51:32;14.45;;;3.38;;
27543;SDS011;17996;51.056;3.656;2022-09-09T07:54:00;16.90;;;3.65;;
27543;SDS011;17996;51.056;3.656;2022-09-09T07:56:30;24.45;;;3.78;;
27543;SDS011;17996;51.056;3.656;2022-09-09T07:58:57;20.20;;;5.00;;
27543;SDS011;17996;51.056;3.656;2022-09-09T08:01:27;19.30;;;3.53;;
27543;SDS011;17996;51.056;3.656;2022-09-09T08:03:58;15.65;;;3.83;;
27543;SDS011;17996;51.056;3.656;2022-09-09T08:06:27;18.45;;;3.50;;
27543;SDS011;17996;51.056;3.656;2022-09-09T08:08:54;22.65;;;4.00;;
27543;SDS011;17996;51.056;3.656;2022-09-09T08:11:23;20.02;;;3.92;;
27543;SDS011;17996;51.056;3.656;2022-09-09T08:13:50;18.20;;;3.30;;
27543;SDS011;17996;51.056;3.656;2022-09-09T08:16:17;17.83;;;3.60;;
27543;SDS011;17996;51.056;3.656;2022-09-09T08:18:49;17.25;;;3.35;;
27543;SDS011;17996;51.056;3.656;2022-09-09T08:21:18;11.48;;;2.90;;
27543;SDS011;17996;51.056;3.656;2022-09-09T08:23:46;15.65;;;3.22;;
27543;SDS011;17996;51.056;3.656;2022-09-09T08:26:17;13.85;;;2.92;;
27543;SDS011;17996;51.056;3.656;2022-09-09T08:28:49;11.52;;;3.17;;
27543;SDS011;17996;51.056;3.656;2022-09-09T08:31:21;15.57;;;2.63;;
27543;SDS011;17996;51.056;3.656;2022-09-09T08:33:48;9.77;;;2.67;;
27543;SDS011;17996;51.056;3.656;2022-09-09T08:36:16;13.38;;;3.03;;
27543;SDS011;17996;51.056;3.656;2022-09-09T08:38:43;13.15;;;3.45;;
27543;SDS011;17996;51.056;3.656;2022-09-09T08:43:43;10.25;;;3.03;;
27543;SDS011;17996;51.056;3.656;2022-09-09T08:48:52;11.23;;;3.08;;
27543;SDS011;17996;51.056;3.656;2022-09-09T08:51:40;14.60;;;3.40;;
27543;SDS011;17996;51.056;3.656;2022-09-09T08:54:07;9.93;;;2.53;;
27543;SDS011;17996;51.056;3.656;2022-09-09T08:56:35;17.45;;;3.90;;
27543;SDS011;17996;51.056;3.656;2022-09-09T08:59:02;9.40;;;2.78;;
27543;SDS011;17996;51.056;3.656;2022-09-09T09:01:49;13.50;;;2.92;;
27543;SDS011;17996;51.056;3.656;2022-09-09T09:10:29;16.50;;;2.70;;
27543;SDS011;17996;51.056;3.656;2022-09-09T09:13:13;12.77;;;3.05;;
27543;SDS011;17996;51.056;3.656;2022-09-09T09:15:42;9.15;;;2.90;;
27543;SDS011;17996;51.056;3.656;2022-09-09T09:18:11;16.73;;;3.88;;
27543;SDS011;17996;51.056;3.656;2022-09-09T09:20:49;14.93;;;2.90;;
27543;SDS011;17996;51.056;3.656;2022-09-09T09:23:24;11.02;;;3.15;;
27543;SDS011;17996;51.056;3.656;2022-09-09T09:25:52;12.43;;;2.85;;
27543;SDS011;17996;51.056;3.656;2022-09-09T09:28:24;9.73;;;3.15;;
27543;SDS011;17996;51.056;3.656;2022-09-09T09:30:56;7.95;;;2.85;;
27543;SDS011;17996;51.056;3.656;2022-09-09T09:33:39;14.13;;;2.50;;
27543;SDS011;17996;51.056;3.656;2022-09-09T09:36:08;9.55;;;3.25;;
27543;SDS011;17996;51.056;3.656;2022-09-09T09:38:34;10.15;;;2.67;;
27543;SDS011;17996;51.056;3.656;2022-09-09T09:41:02;11.23;;;3.47;;
27543;SDS011;17996;51.056;3.656;2022-09-09T09:43:29;22.05;;;3.20;;
27543;SDS011;17996;51.056;3.656;2022-09-09T09:45:59;12.57;;;2.95;;
27543;SDS011;17996;51.056;3.656;2022-09-09T09:48:28;12.70;;;3.00;;
27543;SDS011;17996;51.056;3.656;2022-09-09T09:50:57;16.30;;;3.75;;
27543;SDS011;17996;51.056;3.656;2022-09-09T09:53:32;8.00;;;2.70;;
27543;SDS011;17996;51.056;3.656;2022-09-09T09:58:30;9.00;;;2.45;;
27543;SDS011;17996;51.056;3.656;2022-09-09T10:01:00;13.27;;;2.78;;
27543;SDS011;17996;51.056;3.656;2022-09-09T10:03:27;10.70;;;2.40;;
27543;SDS011;17996;51.056;3.656;2022-09-09T10:05:54;12.93;;;2.47;;
27543;SDS011;17996;51.056;3.656;2022-09-09T10:08:24;11.25;;;3.08;;
27543;SDS011;17996;51.056;3.656;2022-09-09T10:19:05;8.98;;;2.50;;
27543;SDS011;17996;51.056;3.656;2022-09-09T10:21:43;6.82;;;2.25;;
27543;SDS011;17996;51.056;3.656;2022-09-09T10:34:56;8.63;;;2.47;;
27543;SDS011;17996;51.056;3.656;2022-09-09T10:37:46;8.02;;;2.22;;
27543;SDS011;17996;51.056;3.656;2022-09-09T10:42:44;7.18;;;2.20;;
27543;SDS011;17996;51.056;3.656;2022-09-09T10:50:50;6.65;;;1.88;;
27543;SDS011;17996;51.056;3.656;2022-09-09T10:56:12;6.78;;;2.15;;
27543;SDS011;17996;51.056;3.656;2022-09-09T10:58:46;9.40;;;2.20;;
27543;SDS011;17996;51.056;3.656;2022-09-09T11:01:24;9.13;;;2.10;;
27543;SDS011;17996;51.056;3.656;2022-09-09T11:03:56;12.17;;;2.63;;
27543;SDS011;17996;51.056;3.656;2022-09-09T11:06:35;9.60;;;2.38;;
27543;SDS011;17996;51.056;3.656;2022-09-09T11:09:08;11.57;;;2.22;;
27543;SDS011;17996;51.056;3.656;2022-09-09T11:11:44;11.20;;;2.78;;
27543;SDS011;17996;51.056;3.656;2022-09-09T11:17:16;13.45;;;2.20;;
27543;SDS011;17996;51.056;3.656;2022-09-09T11:19:45;9.75;;;1.90;;
27543;SDS011;17996;51.056;3.656;2022-09-09T11:24:54;7.30;;;2.53;;
27543;SDS011;17996;51.056;3.656;2022-09-09T11:27:43;7.47;;;2.20;;
27543;SDS011;17996;51.056;3.656;2022-09-09T11:39:01;6.47;;;2.50;;
27543;SDS011;17996;51.056;3.656;2022-09-09T11:41:32;9.43;;;1.83;;
27543;SDS011;17996;51.056;3.656;2022-09-09T11:44:08;5.55;;;1.65;;
27543;SDS011;17996;51.056;3.656;2022-09-09T11:46:43;7.22;;;1.52;;
27543;SDS011;17996;51.056;3.656;2022-09-09T11:49:28;3.95;;;1.50;;
27543;SDS011;17996;51.056;3.656;2022-09-09T11:51:56;6.10;;;1.65;;
27543;SDS011;17996;51.056;3.656;2022-09-09T11:54:29;5.07;;;1.45;;
27543;SDS011;17996;51.056;3.656;2022-09-09T11:56:57;5.40;;;1.60;;
27543;SDS011;17996;51.056;3.656;2022-09-09T12:01:54;5.78;;;2.00;;
27543;SDS011;17996;51.056;3.656;2022-09-09T12:04:32;5.82;;;1.67;;
27543;SDS011;17996;51.056;3.656;2022-09-09T12:17:50;9.65;;;2.28;;
27543;SDS011;17996;51.056;3.656;2022-09-09T12:37:04;7.72;;;2.13;;
27543;SDS011;17996;51.056;3.656;2022-09-09T12:39:53;7.45;;;1.90;;
27543;SDS011;17996;51.056;3.656;2022-09-09T12:42:22;4.30;;;1.40;;
27543;SDS011;17996;51.056;3.656;2022-09-09T12:44:52;7.65;;;1.90;;
27543;SDS011;17996;51.056;3.656;2022-09-09T12:47:23;5.88;;;1.63;;
27543;SDS011;17996;51.056;3.656;2022-09-09T12:50:01;7.93;;;1.60;;
27543;SDS011;17996;51.056;3.656;2022-09-09T12:52:29;9.63;;;2.05;;
27543;SDS011;17996;51.056;3.656;2022-09-09T12:54:59;6.55;;;1.80;;
27543;SDS011;17996;51.056;3.656;2022-09-09T12:57:29;10.55;;;2.15;;
27543;SDS011;17996;51.056;3.656;2022-09-09T13:00:06;4.57;;;1.85;;
27543;SDS011;17996;51.056;3.656;2022-09-09T13:02:58;8.32;;;2.15;;
27543;SDS011;17996;51.056;3.656;2022-09-09T13:05:39;5.85;;;2.10;;
27543;SDS011;17996;51.056;3.656;2022-09-09T13:08:13;4.50;;;1.63;;
27543;SDS011;17996;51.056;3.656;2022-09-09T13:16:01;5.97;;;2.50;;
27543;SDS011;17996;51.056;3.656;2022-09-09T13:18:30;9.48;;;2.67;;
27543;SDS011;17996;51.056;3.656;2022-09-09T13:21:04;6.45;;;2.08;;
27543;SDS011;17996;51.056;3.656;2022-09-09T13:23:31;6.43;;;2.10;;
27543;SDS011;17996;51.056;3.656;2022-09-09T13:26:01;8.23;;;2.05;;
27543;SDS011;17996;51.056;3.656;2022-09-09T13:28:30;6.13;;;1.80;;
27543;SDS011;17996;51.056;3.656;2022-09-09T13:30:59;5.93;;;1.65;;
27543;SDS011;17996;51.056;3.656;2022-09-09T13:33:38;3.38;;;1.90;;
27543;SDS011;17996;51.056;3.656;2022-09-09T13:36:06;4.53;;;2.00;;
27543;SDS011;17996;51.056;3.656;2022-09-09T13:38:38;5.25;;;1.65;;
27543;SDS011;17996;51.056;3.656;2022-09-09T13:41:21;4.47;;;2.13;;
27543;SDS011;17996;51.056;3.656;2022-09-09T13:43:50;7.90;;;1.60;;
27543;SDS011;17996;51.056;3.656;2022-09-09T13:51:35;7.65;;;2.17;;
27543;SDS011;17996;51.056;3.656;2022-09-09T13:54:03;6.78;;;2.28;;
27543;SDS011;17996;51.056;3.656;2022-09-09T13:56:34;5.68;;;2.00;;
27543;SDS011;17996;51.056;3.656;2022-09-09T13:59:02;4.88;;;1.67;;
27543;SDS011;17996;51.056;3.656;2022-09-09T14:01:31;5.05;;;1.67;;
27543;SDS011;17996;51.056;3.656;2022-09-09T14:03:58;7.85;;;2.05;;
27543;SDS011;17996;51.056;3.656;2022-09-09T14:06:24;6.25;;;1.48;;
27543;SDS011;17996;51.056;3.656;2022-09-09T14:08:49;5.90;;;1.92;;
27543;SDS011;17996;51.056;3.656;2022-09-09T14:11:16;5.85;;;1.75;;
27543;SDS011;17996;51.056;3.656;2022-09-09T14:13:42;5.53;;;2.05;;
27543;SDS011;17996;51.056;3.656;2022-09-09T14:16:08;6.80;;;1.92;;
27543;SDS011;17996;51.056;3.656;2022-09-09T14:18:34;7.90;;;2.05;;
27543;SDS011;17996;51.056;3.656;2022-09-09T14:21:00;4.53;;;1.83;;
27543;SDS011;17996;51.056;3.656;2022-09-09T14:23:27;8.85;;;2.45;;
27543;SDS011;17996;51.056;3.656;2022-09-09T14:25:54;13.90;;;2.30;;
27543;SDS011;17996;51.056;3.656;2022-09-09T14:28:20;4.82;;;1.80;;
27543;SDS011;17996;51.056;3.656;2022-09-09T14:30:46;4.90;;;1.40;;
27543;SDS011;17996;51.056;3.656;2022-09-09T14:33:13;5.13;;;1.77;;
27543;SDS011;17996;51.056;3.656;2022-09-09T14:35:41;10.48;;;2.10;;
27543;SDS011;17996;51.056;3.656;2022-09-09T14:38:07;7.40;;;2.00;;
27543;SDS011;17996;51.056;3.656;2022-09-09T14:40:35;13.43;;;2.13;;
27543;SDS011;17996;51.056;3.656;2022-09-09T14:43:03;5.17;;;1.80;;
27543;SDS011;17996;51.056;3.656;2022-09-09T14:45:30;5.30;;;1.88;;
27543;SDS011;17996;51.056;3.656;2022-09-09T14:47:56;5.65;;;1.40;;
27543;SDS011;17996;51.056;3.656;2022-09-09T14:50:22;4.38;;;1.83;;
27543;SDS011;17996;51.056;3.656;2022-09-09T14:52:49;4.38;;;1.48;;
27543;SDS011;17996;51.056;3.656;2022-09-09T14:55:16;7.28;;;1.70;;
27543;SDS011;17996;51.056;3.656;2022-09-09T14:57:44;4.68;;;1.98;;
27543;SDS011;17996;51.056;3.656;2022-09-09T15:00:11;5.23;;;1.70;;
27543;SDS011;17996;51.056;3.656;2022-09-09T15:02:39;7.25;;;1.83;;
27543;SDS011;17996;51.056;3.656;2022-09-09T15:05:05;4.93;;;1.95;;
27543;SDS011;17996;51.056;3.656;2022-09-09T15:07:31;6.05;;;1.95;;
27543;SDS011;17996;51.056;3.656;2022-09-09T15:09:57;6.75;;;2.38;;
27543;SDS011;17996;51.056;3.656;2022-09-09T15:12:23;10.40;;;2.38;;
27543;SDS011;17996;51.056;3.656;2022-09-09T15:14:49;6.45;;;2.22;;
27543;SDS011;17996;51.056;3.656;2022-09-09T15:17:15;5.70;;;1.98;;
27543;SDS011;17996;51.056;3.656;2022-09-09T15:19:41;9.60;;;1.75;;
27543;SDS011;17996;51.056;3.656;2022-09-09T15:22:07;4.80;;;1.75;;
27543;SDS011;17996;51.056;3.656;2022-09-09T15:24:33;8.00;;;1.52;;
27543;SDS011;17996;51.056;3.656;2022-09-09T15:27:00;7.88;;;2.03;;
27543;SDS011;17996;51.056;3.656;2022-09-09T15:29:26;6.32;;;1.52;;
27543;SDS011;17996;51.056;3.656;2022-09-09T15:31:55;4.32;;;1.60;;
27543;SDS011;17996;51.056;3.656;2022-09-09T15:34:22;6.07;;;1.70;;
27543;SDS011;17996;51.056;3.656;2022-09-09T15:36:48;4.63;;;1.55;;
27543;SDS011;17996;51.056;3.656;2022-09-09T15:39:14;4.45;;;1.50;;
27543;SDS011;17996;51.056;3.656;2022-09-09T15:41:42;4.35;;;1.63;;
27543;SDS011;17996;51.056;3.656;2022-09-09T15:44:12;7.97;;;1.80;;
27543;SDS011;17996;51.056;3.656;2022-09-09T15:49:12;3.28;;;1.52;;
27543;SDS011;17996;51.056;3.656;2022-09-09T15:51:40;9.52;;;1.73;;
27543;SDS011;17996;51.056;3.656;2022-09-09T15:54:12;4.50;;;1.98;;
27543;SDS011;17996;51.056;3.656;2022-09-09T15:56:41;11.23;;;2.38;;
27543;SDS011;17996;51.056;3.656;2022-09-09T15:59:07;7.35;;;1.88;;
27543;SDS011;17996;51.056;3.656;2022-09-09T16:01:34;7.28;;;2.03;;
27543;SDS011;17996;51.056;3.656;2022-09-09T16:04:00;8.85;;;2.05;;
27543;SDS011;17996;51.056;3.656;2022-09-09T16:06:26;8.68;;;2.35;;
27543;SDS011;17996;51.056;3.656;2022-09-09T16:08:53;8.75;;;2.60;;
27543;SDS011;17996;51.056;3.656;2022-09-09T16:11:26;10.23;;;2.13;;
27543;SDS011;17996;51.056;3.656;2022-09-09T16:13:54;6.50;;;2.03;;
27543;SDS011;17996;51.056;3.656;2022-09-09T16:16:21;6.95;;;2.03;;
27543;SDS011;17996;51.056;3.656;2022-09-09T16:18:51;5.80;;;1.88;;
27543;SDS011;17996;51.056;3.656;2022-09-09T16:23:50;6.32;;;2.08;;
27543;SDS011;17996;51.056;3.656;2022-09-09T16:26:18;8.50;;;2.80;;
27543;SDS011;17996;51.056;3.656;2022-09-09T16:28:45;9.50;;;2.63;;
27543;SDS011;17996;51.056;3.656;2022-09-09T16:31:15;13.15;;;3.55;;
27543;SDS011;17996;51.056;3.656;2022-09-09T16:33:43;20.90;;;3.60;;
27543;SDS011;17996;51.056;3.656;2022-09-09T16:36:10;9.93;;;3.30;;
27543;SDS011;17996;51.056;3.656;2022-09-09T16:38:37;6.72;;;2.67;;
27543;SDS011;17996;51.056;3.656;2022-09-09T16:41:04;10.10;;;3.28;;
27543;SDS011;17996;51.056;3.656;2022-09-09T16:43:31;7.95;;;2.85;;
27543;SDS011;17996;51.056;3.656;2022-09-09T16:45:58;9.80;;;3.42;;
27543;SDS011;17996;51.056;3.656;2022-09-09T16:48:25;5.47;;;2.70;;
27543;SDS011;17996;51.056;3.656;2022-09-09T16:50:52;10.43;;;3.42;;
27543;SDS011;17996;51.056;3.656;2022-09-09T16:53:17;10.15;;;3.42;;
27543;SDS011;17996;51.056;3.656;2022-09-09T16:55:43;8.50;;;3.13;;
27543;SDS011;17996;51.056;3.656;2022-09-09T16:58:12;10.55;;;3.33;;
27543;SDS011;17996;51.056;3.656;2022-09-09T17:00:38;10.45;;;3.08;;
27543;SDS011;17996;51.056;3.656;2022-09-09T17:03:03;16.50;;;4.60;;
27543;SDS011;17996;51.056;3.656;2022-09-09T17:05:29;17.45;;;4.82;;
27543;SDS011;17996;51.056;3.656;2022-09-09T17:07:55;10.85;;;4.45;;
27543;SDS011;17996;51.056;3.656;2022-09-09T17:10:24;15.68;;;4.60;;
27543;SDS011;17996;51.056;3.656;2022-09-09T17:12:50;16.15;;;4.70;;
27543;SDS011;17996;51.056;3.656;2022-09-09T17:15:16;10.25;;;4.35;;
27543;SDS011;17996;51.056;3.656;2022-09-09T17:17:43;17.20;;;3.60;;
27543;SDS011;17996;51.056;3.656;2022-09-09T17:20:10;12.18;;;3.03;;
27543;SDS011;17996;51.056;3.656;2022-09-09T17:22:36;11.82;;;3.22;;
27543;SDS011;17996;51.056;3.656;2022-09-09T17:25:02;15.93;;;3.42;;
27543;SDS011;17996;51.056;3.656;2022-09-09T17:27:28;12.23;;;3.05;;
27543;SDS011;17996;51.056;3.656;2022-09-09T17:29:56;17.17;;;3.08;;
27543;SDS011;17996;51.056;3.656;2022-09-09T17:32:22;14.93;;;2.97;;
27543;SDS011;17996;51.056;3.656;2022-09-09T17:34:48;11.18;;;2.75;;
27543;SDS011;17996;51.056;3.656;2022-09-09T17:37:13;16.90;;;2.90;;
27543;SDS011;17996;51.056;3.656;2022-09-09T17:39:39;12.48;;;2.30;;
27543;SDS011;17996;51.056;3.656;2022-09-09T17:42:04;14.70;;;3.25;;
27543;SDS011;17996;51.056;3.656;2022-09-09T17:44:32;11.75;;;3.00;;
27543;SDS011;17996;51.056;3.656;2022-09-09T17:46:58;16.20;;;2.80;;
27543;SDS011;17996;51.056;3.656;2022-09-09T17:49:24;17.50;;;2.35;;
27543;SDS011;17996;51.056;3.656;2022-09-09T17:51:50;10.30;;;2.33;;
27543;SDS011;17996;51.056;3.656;2022-09-09T17:54:17;10.75;;;3.00;;
27543;SDS011;17996;51.056;3.656;2022-09-09T17:56:44;21.00;;;2.95;;
27543;SDS011;17996;51.056;3.656;2022-09-09T17:59:12;13.07;;;2.50;;
27543;SDS011;17996;51.056;3.656;2022-09-09T18:01:40;15.35;;;2.58;;